sensor_id;sensor_type;location;lat;lon;timestamp;pressure;altitude;pressure_sealevel;temperature;humidity
72086;BME280;64750;52.134;5.424;2024-01-15T00:01:59;100545.94;;;1.90;100.00
72086;BME280;64750;52.134;5.424;2024-01-15T00:04:26;100539.94;;;1.88;99.82
72086;BME280;64750;52.134;5.424;2024-01-15T00:06:52;100540.00;;;1.87;99.78
72086;BME280;64750;52.134;5.424;2024-01-15T00:09:19;100538.22;;;1.89;100.00
72086;BME280;64750;52.134;5.424;2024-01-15T00:11:45;100536.63;;;1.85;99.64
72086;BME280;64750;52.134;5.424;2024-01-15T00:14:12;100530.56;;;1.84;99.67
72086;BME280;64750;52.134;5.424;2024-01-15T00:16:41;100535.75;;;1.84;99.74
72086;BME280;64750;52.134;5.424;2024-01-15T00:19:08;100528.88;;;1.83;99.69
72086;BME280;64750;52.134;5.424;2024-01-15T00:21:34;100526.38;;;1.80;99.28
72086;BME280;64750;52.134;5.424;2024-01-15T00:24:00;100522.19;;;1.76;99.90
72086;BME280;64750;52.134;5.424;2024-01-15T00:26:27;100516.28;;;1.71;99.13
72086;BME280;64750;52.134;5.424;2024-01-15T00:28:53;100511.13;;;1.69;99.44
72086;BME280;64750;52.134;5.424;2024-01-15T00:31:20;100508.50;;;1.71;98.92
72086;BME280;64750;52.134;5.424;2024-01-15T00:33:46;100511.13;;;1.69;99.20
72086;BME280;64750;52.134;5.424;2024-01-15T00:36:13;100510.28;;;1.69;99.08
72086;BME280;64750;52.134;5.424;2024-01-15T00:38:41;100508.69;;;1.64;98.94
72086;BME280;64750;52.134;5.424;2024-01-15T00:41:07;100511.22;;;1.66;98.54
72086;BME280;64750;52.134;5.424;2024-01-15T00:43:33;100503.56;;;1.61;98.09
72086;BME280;64750;52.134;5.424;2024-01-15T00:46:03;100501.91;;;1.60;98.38
72086;BME280;64750;52.134;5.424;2024-01-15T00:48:30;100501.91;;;1.60;98.19
72086;BME280;64750;52.134;5.424;2024-01-15T00:50:57;100491.53;;;1.60;98.43
72086;BME280;64750;52.134;5.424;2024-01-15T00:53:23;100480.41;;;1.57;98.03
72086;BME280;64750;52.134;5.424;2024-01-15T00:55:50;100485.63;;;1.55;98.12
72086;BME280;64750;52.134;5.424;2024-01-15T00:58:16;100483.88;;;1.56;98.06
72086;BME280;64750;52.134;5.424;2024-01-15T01:00:42;100489.06;;;1.56;98.69
72086;BME280;64750;52.134;5.424;2024-01-15T01:03:09;100483.13;;;1.52;97.85
72086;BME280;64750;52.134;5.424;2024-01-15T01:05:36;100492.63;;;1.52;97.77
72086;BME280;64750;52.134;5.424;2024-01-15T01:08:04;100482.28;;;1.52;97.90
72086;BME280;64750;52.134;5.424;2024-01-15T01:10:30;100472.69;;;1.54;97.75
72086;BME280;64750;52.134;5.424;2024-01-15T01:12:57;100477.94;;;1.52;97.72
72086;BME280;64750;52.134;5.424;2024-01-15T01:15:23;100474.47;;;1.53;97.86
72086;BME280;64750;52.134;5.424;2024-01-15T01:17:51;100472.03;;;1.47;97.37
72086;BME280;64750;52.134;5.424;2024-01-15T01:20:17;100465.19;;;1.44;97.62
72086;BME280;64750;52.134;5.424;2024-01-15T01:22:45;100461.69;;;1.47;97.70
72086;BME280;64750;52.134;5.424;2024-01-15T01:25:11;100472.13;;;1.44;96.58
72086;BME280;64750;52.134;5.424;2024-01-15T01:27:38;100474.72;;;1.44;96.59
72086;BME280;64750;52.134;5.424;2024-01-15T01:30:05;100472.94;;;1.46;97.04
72086;BME280;64750;52.134;5.424;2024-01-15T01:32:31;100473.84;;;1.43;96.26
72086;BME280;64750;52.134;5.424;2024-01-15T01:34:58;100477.38;;;1.42;95.90
72086;BME280;64750;52.134;5.424;2024-01-15T01:37:25;100481.63;;;1.45;96.14
72086;BME280;64750;52.134;5.424;2024-01-15T01:39:52;100474.72;;;1.44;96.35
72086;BME280;64750;52.134;5.424;2024-01-15T01:42:18;100479.13;;;1.40;96.52
72086;BME280;64750;52.134;5.424;2024-01-15T01:44:45;100469.72;;;1.38;96.53
72086;BME280;64750;52.134;5.424;2024-01-15T01:47:12;100478.31;;;1.40;96.30
72086;BME280;64750;52.134;5.424;2024-01-15T01:49:39;100476.44;;;1.45;96.25
72086;BME280;64750;52.134;5.424;2024-01-15T01:52:06;100471.25;;;1.45;96.22
72086;BME280;64750;52.134;5.424;2024-01-15T01:54:36;100464.44;;;1.41;96.47
72086;BME280;64750;52.134;5.424;2024-01-15T01:57:04;100463.59;;;1.40;96.05
72086;BME280;64750;52.134;5.424;2024-01-15T01:59:34;100471.41;;;1.39;96.09
72086;BME280;64750;52.134;5.424;2024-01-15T02:02:02;100472.25;;;1.39;96.13
72086;BME280;64750;52.134;5.424;2024-01-15T02:04:31;100470.56;;;1.38;96.94
72086;BME280;64750;52.134;5.424;2024-01-15T02:07:16;100469.63;;;1.41;96.02
72086;BME280;64750;52.134;5.424;2024-01-15T02:09:44;100482.34;;;1.48;96.08
72086;BME280;64750;52.134;5.424;2024-01-15T02:12:12;100486.53;;;1.54;95.89
72086;BME280;64750;52.134;5.424;2024-01-15T02:14:39;100509.78;;;1.56;96.26
72086;BME280;64750;52.134;5.424;2024-01-15T02:17:06;100516.63;;;1.58;96.69
72086;BME280;64750;52.134;5.424;2024-01-15T02:19:32;100500.25;;;1.56;96.86
72086;BME280;64750;52.134;5.424;2024-01-15T02:21:59;100485.59;;;1.57;97.22
72086;BME280;64750;52.134;5.424;2024-01-15T02:24:25;100486.41;;;1.57;97.99
72086;BME280;64750;52.134;5.424;2024-01-15T02:26:52;100483.84;;;1.57;98.16
72086;BME280;64750;52.134;5.424;2024-01-15T02:29:19;100477.75;;;1.58;98.34
72086;BME280;64750;52.134;5.424;2024-01-15T02:31:45;100477.75;;;1.58;97.93
72086;BME280;64750;52.134;5.424;2024-01-15T02:34:12;100485.59;;;1.57;98.71
72086;BME280;64750;52.134;5.424;2024-01-15T02:36:39;100479.59;;;1.55;98.91
72086;BME280;64750;52.134;5.424;2024-01-15T02:39:05;100477.00;;;1.55;98.75
72086;BME280;64750;52.134;5.424;2024-01-15T02:41:32;100476.16;;;1.54;99.17
72086;BME280;64750;52.134;5.424;2024-01-15T02:43:58;100476.16;;;1.54;98.96
72086;BME280;64750;52.134;5.424;2024-01-15T02:46:25;100470.97;;;1.54;98.96
72086;BME280;64750;52.134;5.424;2024-01-15T02:48:51;100470.13;;;1.54;99.59
72086;BME280;64750;52.134;5.424;2024-01-15T02:51:18;100461.56;;;1.52;99.27
72086;BME280;64750;52.134;5.424;2024-01-15T02:53:45;100461.56;;;1.52;99.17
72086;BME280;64750;52.134;5.424;2024-01-15T02:56:11;100464.97;;;1.52;99.74
72086;BME280;64750;52.134;5.424;2024-01-15T02:58:38;100458.09;;;1.51;99.99
72086;BME280;64750;52.134;5.424;2024-01-15T03:01:04;100469.31;;;1.52;100.00
72086;BME280;64750;52.134;5.424;2024-01-15T03:03:31;100465.88;;;1.51;100.00
72086;BME280;64750;52.134;5.424;2024-01-15T03:05:59;100459.03;;;1.50;100.00
72086;BME280;64750;52.134;5.424;2024-01-15T03:08:27;100463.28;;;1.51;99.65
72086;BME280;64750;52.134;5.424;2024-01-15T03:10:55;100457.22;;;1.52;99.73
72086;BME280;64750;52.134;5.424;2024-01-15T03:13:21;100449.50;;;1.51;100.00
72086;BME280;64750;52.134;5.424;2024-01-15T03:15:48;100453.75;;;1.53;99.99
72086;BME280;64750;52.134;5.424;2024-01-15T03:18:14;100452.91;;;1.53;99.95
72086;BME280;64750;52.134;5.424;2024-01-15T03:20:41;100457.22;;;1.52;100.00
72086;BME280;64750;52.134;5.424;2024-01-15T03:23:08;100450.34;;;1.51;99.89
72086;BME280;64750;52.134;5.424;2024-01-15T03:25:34;100448.56;;;1.53;100.00
72086;BME280;64750;52.134;5.424;2024-01-15T03:28:01;100456.44;;;1.48;100.00
72086;BME280;64750;52.134;5.424;2024-01-15T03:30:27;100462.56;;;1.46;100.00
72086;BME280;64750;52.134;5.424;2024-01-15T03:32:53;100466.84;;;1.47;100.00
72086;BME280;64750;52.134;5.424;2024-01-15T03:35:20;100467.75;;;1.46;100.00
72086;BME280;64750;52.134;5.424;2024-01-15T03:37:46;100478.09;;;1.47;100.00
72086;BME280;64750;52.134;5.424;2024-01-15T03:40:13;100472.03;;;1.47;100.00
72086;BME280;64750;52.134;5.424;2024-01-15T03:42:40;100489.22;;;1.50;100.00
72086;BME280;64750;52.134;5.424;2024-01-15T03:45:07;100483.13;;;1.52;100.00
72086;BME280;64750;52.134;5.424;2024-01-15T03:47:33;100483.22;;;1.49;100.00
72086;BME280;64750;52.134;5.424;2024-01-15T03:50:00;100477.16;;;1.50;100.00
72086;BME280;64750;52.134;5.424;2024-01-15T03:52:26;100459.84;;;1.51;100.00
72086;BME280;64750;52.134;5.424;2024-01-15T03:54:53;100451.31;;;1.47;100.00
72086;BME280;64750;52.134;5.424;2024-01-15T03:57:19;100446.13;;;1.47;100.00
72086;BME280;64750;52.134;5.424;2024-01-15T03:59:46;100433.19;;;1.47;100.00
72086;BME280;64750;52.134;5.424;2024-01-15T04:02:13;100431.50;;;1.46;100.00
72086;BME280;64750;52.134;5.424;2024-01-15T04:04:41;100428.81;;;1.49;100.00
72086;BME280;64750;52.134;5.424;2024-01-15T04:07:11;100421.09;;;1.47;100.00
72086;BME280;64750;52.134;5.424;2024-01-15T04:09:38;100421.13;;;1.46;100.00
72086;BME280;64750;52.134;5.424;2024-01-15T04:12:05;100414.28;;;1.45;100.00
72086;BME280;64750;52.134;5.424;2024-01-15T04:14:31;100418.75;;;1.40;100.00
72086;BME280;64750;52.134;5.424;2024-01-15T04:16:58;100412.66;;;1.41;100.00
72086;BME280;64750;52.134;5.424;2024-01-15T04:19:24;100420.41;;;1.42;100.00
72086;BME280;64750;52.134;5.424;2024-01-15T04:21:51;100417.81;;;1.41;100.00
72086;BME280;64750;52.134;5.424;2024-01-15T04:24:18;100413.56;;;1.40;100.00
72086;BME280;64750;52.134;5.424;2024-01-15T04:26:45;100406.72;;;1.37;100.00
72086;BME280;64750;52.134;5.424;2024-01-15T04:29:12;100401.56;;;1.37;100.00
72086;BME280;64750;52.134;5.424;2024-01-15T04:31:38;100404.03;;;1.40;100.00
72086;BME280;64750;52.134;5.424;2024-01-15T04:34:05;100407.56;;;1.38;100.00
72086;BME280;64750;52.134;5.424;2024-01-15T04:36:38;100403.28;;;1.37;100.00
72086;BME280;64750;52.134;5.424;2024-01-15T04:39:05;100394.72;;;1.35;99.94
72086;BME280;64750;52.134;5.424;2024-01-15T04:41:31;100400.69;;;1.37;100.00
72086;BME280;64750;52.134;5.424;2024-01-15T04:43:58;100393.91;;;1.33;99.76
72086;BME280;64750;52.134;5.424;2024-01-15T04:46:26;100389.63;;;1.31;100.00
72086;BME280;64750;52.134;5.424;2024-01-15T04:48:53;100388.63;;;1.36;100.00
72086;BME280;64750;52.134;5.424;2024-01-15T04:51:19;100381.78;;;1.35;100.00
72086;BME280;64750;52.134;5.424;2024-01-15T04:53:46;100384.31;;;1.36;100.00
72086;BME280;64750;52.134;5.424;2024-01-15T04:56:12;100393.91;;;1.33;100.00
72086;BME280;64750;52.134;5.424;2024-01-15T04:58:39;100395.69;;;1.30;100.00
72086;BME280;64750;52.134;5.424;2024-01-15T05:01:07;100400.97;;;1.27;100.00
72086;BME280;64750;52.134;5.424;2024-01-15T05:03:34;100390.59;;;1.27;100.00
72086;BME280;64750;52.134;5.424;2024-01-15T05:06:01;100390.66;;;1.26;100.00
72086;BME280;64750;52.134;5.424;2024-01-15T05:08:27;100388.00;;;1.27;100.00
72086;BME280;64750;52.134;5.424;2024-01-15T05:10:54;100386.22;;;1.29;100.00
72086;BME280;64750;52.134;5.424;2024-01-15T05:13:20;100388.84;;;1.28;100.00
72086;BME280;64750;52.134;5.424;2024-01-15T05:15:46;100385.44;;;1.27;100.00
72086;BME280;64750;52.134;5.424;2024-01-15T05:18:14;100372.44;;;1.29;100.00
72086;BME280;64750;52.134;5.424;2024-01-15T05:20:40;100368.06;;;1.31;100.00
72086;BME280;64750;52.134;5.424;2024-01-15T05:23:07;100378.44;;;1.31;100.00
72086;BME280;64750;52.134;5.424;2024-01-15T05:25:33;100375.84;;;1.29;100.00
72086;BME280;64750;52.134;5.424;2024-01-15T05:28:00;100375.06;;;1.27;100.00
72086;BME280;64750;52.134;5.424;2024-01-15T05:30:26;100371.59;;;1.28;100.00
72086;BME280;64750;52.134;5.424;2024-01-15T05:32:53;100378.44;;;1.29;100.00
72086;BME280;64750;52.134;5.424;2024-01-15T05:35:20;100381.03;;;1.29;100.00
72086;BME280;64750;52.134;5.424;2024-01-15T05:37:46;100383.72;;;1.26;100.00
72086;BME280;64750;52.134;5.424;2024-01-15T05:40:13;100379.34;;;1.28;100.00
72086;BME280;64750;52.134;5.424;2024-01-15T05:42:41;100389.75;;;1.27;100.00
72086;BME280;64750;52.134;5.424;2024-01-15T05:45:08;100390.59;;;1.27;100.00
72086;BME280;64750;52.134;5.424;2024-01-15T05:47:34;100379.34;;;1.28;100.00
72086;BME280;64750;52.134;5.424;2024-01-15T05:50:01;100386.19;;;1.31;100.00
72086;BME280;64750;52.134;5.424;2024-01-15T05:52:28;100392.25;;;1.30;100.00
72086;BME280;64750;52.134;5.424;2024-01-15T05:54:55;100387.03;;;1.31;100.00
72086;BME280;64750;52.134;5.424;2024-01-15T05:57:24;100388.72;;;1.33;100.00
72086;BME280;64750;52.134;5.424;2024-01-15T05:59:51;100392.13;;;1.35;100.00
72086;BME280;64750;52.134;5.424;2024-01-15T06:02:17;100405.88;;;1.37;100.00
72086;BME280;64750;52.134;5.424;2024-01-15T06:04:44;100399.75;;;1.39;100.00
72086;BME280;64750;52.134;5.424;2024-01-15T06:07:10;100394.53;;;1.41;100.00
72086;BME280;64750;52.134;5.424;2024-01-15T06:09:37;100406.63;;;1.40;100.00
72086;BME280;64750;52.134;5.424;2024-01-15T06:12:06;100407.66;;;1.35;100.00
72086;BME280;64750;52.134;5.424;2024-01-15T06:14:33;100382.72;;;1.30;100.00
72086;BME280;64750;52.134;5.424;2024-01-15T06:16:59;100387.03;;;1.31;100.00
72086;BME280;64750;52.134;5.424;2024-01-15T06:19:25;100383.72;;;1.26;100.00
72086;BME280;64750;52.134;5.424;2024-01-15T06:21:52;100380.31;;;1.24;100.00
72086;BME280;64750;52.134;5.424;2024-01-15T06:24:19;100385.59;;;1.21;100.00
72086;BME280;64750;52.134;5.424;2024-01-15T06:26:47;100374.34;;;1.22;100.00
72086;BME280;64750;52.134;5.424;2024-01-15T06:29:13;100375.25;;;1.21;100.00
72086;BME280;64750;52.134;5.424;2024-01-15T06:31:40;100375.34;;;1.18;100.00
72086;BME280;64750;52.134;5.424;2024-01-15T06:34:06;100381.31;;;1.20;100.00
72086;BME280;64750;52.134;5.424;2024-01-15T06:36:33;100379.59;;;1.19;100.00
72086;BME280;64750;52.134;5.424;2024-01-15T06:39:00;100370.06;;;1.21;100.00
72086;BME280;64750;52.134;5.424;2024-01-15T06:41:26;100370.06;;;1.21;100.00
72086;BME280;64750;52.134;5.424;2024-01-15T06:43:53;100372.59;;;1.23;100.00
72086;BME280;64750;52.134;5.424;2024-01-15T06:46:23;100371.78;;;1.22;100.00
72086;BME280;64750;52.134;5.424;2024-01-15T06:48:49;100370.06;;;1.21;100.00
72086;BME280;64750;52.134;5.424;2024-01-15T06:51:16;100373.53;;;1.20;100.00
72086;BME280;64750;52.134;5.424;2024-01-15T06:53:43;100374.44;;;1.19;100.00
72086;BME280;64750;52.134;5.424;2024-01-15T06:56:09;100369.25;;;1.19;100.00
72086;BME280;64750;52.134;5.424;2024-01-15T06:58:36;100364.06;;;1.21;100.00
72086;BME280;64750;52.134;5.424;2024-01-15T07:01:02;100354.69;;;1.15;100.00
72086;BME280;64750;52.134;5.424;2024-01-15T07:03:29;100357.41;;;1.12;100.00
72086;BME280;64750;52.134;5.424;2024-01-15T07:05:56;100353.09;;;1.11;100.00
72086;BME280;64750;52.134;5.424;2024-01-15T07:08:22;100359.88;;;1.15;100.00
72086;BME280;64750;52.134;5.424;2024-01-15T07:10:49;100358.09;;;1.17;100.00
72086;BME280;64750;52.134;5.424;2024-01-15T07:13:15;100358.22;;;1.12;100.00
72086;BME280;64750;52.134;5.424;2024-01-15T07:15:41;100366.88;;;1.13;100.00
72086;BME280;64750;52.134;5.424;2024-01-15T07:18:08;100383.34;;;1.09;100.00
72086;BME280;64750;52.134;5.424;2024-01-15T07:20:35;100404.09;;;1.07;100.00
72086;BME280;64750;52.134;5.424;2024-01-15T07:23:01;100420.56;;;1.05;100.00
72086;BME280;64750;52.134;5.424;2024-01-15T07:25:28;100406.84;;;1.03;100.00
72086;BME280;64750;52.134;5.424;2024-01-15T07:27:55;100390.59;;;0.96;100.00
72086;BME280;64750;52.134;5.424;2024-01-15T07:30:22;100383.78;;;0.93;100.00
72086;BME280;64750;52.134;5.424;2024-01-15T07:32:48;100379.41;;;0.95;100.00
72086;BME280;64750;52.134;5.424;2024-01-15T07:35:15;100373.53;;;0.90;100.00
72086;BME280;64750;52.134;5.424;2024-01-15T07:37:41;100376.94;;;0.91;100.00
72086;BME280;64750;52.134;5.424;2024-01-15T07:40:08;100381.19;;;0.93;100.00
72086;BME280;64750;52.134;5.424;2024-01-15T07:42:35;100376.00;;;0.93;100.00
72086;BME280;64750;52.134;5.424;2024-01-15T07:45:02;100368.22;;;0.95;100.00
72086;BME280;64750;52.134;5.424;2024-01-15T07:47:28;100378.53;;;0.96;100.00
72086;BME280;64750;52.134;5.424;2024-01-15T07:49:55;100391.47;;;0.96;100.00
72086;BME280;64750;52.134;5.424;2024-01-15T07:52:25;100398.34;;;0.97;100.00
72086;BME280;64750;52.134;5.424;2024-01-15T07:54:52;100394.06;;;0.96;100.00
72086;BME280;64750;52.134;5.424;2024-01-15T07:57:18;100385.16;;;1.07;100.00
72086;BME280;64750;52.134;5.424;2024-01-15T07:59:45;100394.78;;;1.02;100.00
72086;BME280;64750;52.134;5.424;2024-01-15T08:02:11;100392.25;;;1.00;100.00
72086;BME280;64750;52.134;5.424;2024-01-15T08:04:38;100394.00;;;0.98;100.00
72086;BME280;64750;52.134;5.424;2024-01-15T08:07:05;100398.34;;;0.97;100.00
72086;BME280;64750;52.134;5.424;2024-01-15T08:09:33;100388.88;;;0.96;100.00
72086;BME280;64750;52.134;5.424;2024-01-15T08:12:00;100381.91;;;0.98;100.00
72086;BME280;64750;52.134;5.424;2024-01-15T08:14:27;100368.13;;;0.98;100.00
72086;BME280;64750;52.134;5.424;2024-01-15T08:16:53;100371.31;;;1.08;100.00
72086;BME280;64750;52.134;5.424;2024-01-15T08:19:19;100364.34;;;1.10;100.00
72086;BME280;64750;52.134;5.424;2024-01-15T08:21:46;100361.84;;;1.07;100.00
72086;BME280;64750;52.134;5.424;2024-01-15T08:24:14;100381.75;;;1.05;100.00
72086;BME280;64750;52.134;5.424;2024-01-15T08:26:41;100382.81;;;0.97;100.00
72086;BME280;64750;52.134;5.424;2024-01-15T08:29:07;100393.25;;;0.94;100.00
72086;BME280;64750;52.134;5.424;2024-01-15T08:31:34;100388.06;;;0.94;100.00
72086;BME280;64750;52.134;5.424;2024-01-15T08:34:01;100398.56;;;0.88;100.00
72086;BME280;64750;52.134;5.424;2024-01-15T08:36:28;100396.94;;;0.86;100.00
72086;BME280;64750;52.134;5.424;2024-01-15T08:38:57;100382.34;;;0.83;100.00
72086;BME280;64750;52.134;5.424;2024-01-15T08:41:24;100385.06;;;0.78;100.00
72086;BME280;64750;52.134;5.424;2024-01-15T08:43:50;100375.50;;;0.80;100.00
72086;BME280;64750;52.134;5.424;2024-01-15T08:46:19;100380.69;;;0.80;100.00
72086;BME280;64750;52.134;5.424;2024-01-15T08:48:45;100381.50;;;0.82;100.00
72086;BME280;64750;52.134;5.424;2024-01-15T08:51:12;100377.22;;;0.81;100.00
72086;BME280;64750;52.134;5.424;2024-01-15T08:53:38;100376.31;;;0.82;100.00
72086;BME280;64750;52.134;5.424;2024-01-15T08:56:05;100385.75;;;0.85;100.00
72086;BME280;64750;52.134;5.424;2024-01-15T08:58:32;100387.50;;;0.83;100.00
72086;BME280;64750;52.134;5.424;2024-01-15T09:00:58;100392.69;;;0.83;100.00
72086;BME280;64750;52.134;5.424;2024-01-15T09:03:26;100390.09;;;0.83;100.00
72086;BME280;64750;52.134;5.424;2024-01-15T09:05:53;100394.38;;;0.84;100.00
72086;BME280;64750;52.134;5.424;2024-01-15T09:08:21;100404.69;;;0.86;100.00
72086;BME280;64750;52.134;5.424;2024-01-15T09:10:47;100403.75;;;0.88;100.00
72086;BME280;64750;52.134;5.424;2024-01-15T09:13:13;100417.50;;;0.90;100.00
72086;BME280;64750;52.134;5.424;2024-01-15T09:15:40;100410.56;;;0.92;100.00
72086;BME280;64750;52.134;5.424;2024-01-15T09:18:06;100400.22;;;0.92;100.00
72086;BME280;64750;52.134;5.424;2024-01-15T09:20:34;100393.28;;;0.93;100.00
72086;BME280;64750;52.134;5.424;2024-01-15T09:23:00;100379.50;;;0.92;100.00
72086;BME280;64750;52.134;5.424;2024-01-15T09:25:27;100386.38;;;0.93;100.00
72086;BME280;64750;52.134;5.424;2024-01-15T09:27:54;100386.28;;;0.96;100.00
72086;BME280;64750;52.134;5.424;2024-01-15T09:30:20;100386.38;;;0.93;100.00
72086;BME280;64750;52.134;5.424;2024-01-15T09:32:47;100393.25;;;0.94;100.00
72086;BME280;64750;52.134;5.424;2024-01-15T09:35:13;100394.13;;;0.93;100.00
72086;BME280;64750;52.134;5.424;2024-01-15T09:37:41;100392.41;;;0.94;100.00
72086;BME280;64750;52.134;5.424;2024-01-15T09:40:14;100390.59;;;0.96;100.00
72086;BME280;64750;52.134;5.424;2024-01-15T09:42:44;100394.84;;;0.98;100.00
72086;BME280;64750;52.134;5.424;2024-01-15T09:45:12;100386.13;;;1.03;100.00
72086;BME280;64750;52.134;5.424;2024-01-15T09:47:40;100389.50;;;1.05;100.00
72086;BME280;64750;52.134;5.424;2024-01-15T09:50:13;100396.38;;;1.06;100.00
72086;BME280;64750;52.134;5.424;2024-01-15T09:52:40;100387.03;;;1.02;100.00
72086;BME280;64750;52.134;5.424;2024-01-15T09:55:08;100380.25;;;0.97;100.00
72086;BME280;64750;52.134;5.424;2024-01-15T09:57:36;100390.59;;;0.97;100.00
72086;BME280;64750;52.134;5.424;2024-01-15T10:00:04;100399.13;;;1.00;100.00
72086;BME280;64750;52.134;5.424;2024-01-15T10:02:33;100398.34;;;0.97;100.00
72086;BME280;64750;52.134;5.424;2024-01-15T10:05:02;100394.94;;;0.95;100.00
72086;BME280;64750;52.134;5.424;2024-01-15T10:07:29;100404.31;;;1.00;100.00
72086;BME280;64750;52.134;5.424;2024-01-15T10:09:56;100408.50;;;1.04;100.00
72086;BME280;64750;52.134;5.424;2024-01-15T10:12:23;100410.03;;;1.11;100.00
72086;BME280;64750;52.134;5.424;2024-01-15T10:14:51;100401.41;;;1.12;100.00
72086;BME280;64750;52.134;5.424;2024-01-15T10:17:18;100390.19;;;1.11;100.00
72086;BME280;64750;52.134;5.424;2024-01-15T10:19:45;100389.44;;;1.08;100.00
72086;BME280;64750;52.134;5.424;2024-01-15T10:22:16;100398.94;;;1.07;100.00
72086;BME280;64750;52.134;5.424;2024-01-15T10:24:44;100402.34;;;1.09;100.00
72086;BME280;64750;52.134;5.424;2024-01-15T10:27:13;100413.34;;;1.16;100.00
72086;BME280;64750;52.134;5.424;2024-01-15T10:29:41;100411.47;;;1.21;100.00
72086;BME280;64750;52.134;5.424;2024-01-15T10:32:08;100420.22;;;1.17;100.00
72086;BME280;64750;52.134;5.424;2024-01-15T10:34:39;100401.41;;;1.12;100.00
72086;BME280;64750;52.134;5.424;2024-01-15T10:37:10;100404.97;;;1.08;100.00
72086;BME280;64750;52.134;5.424;2024-01-15T10:39:36;100408.59;;;1.01;100.00
72086;BME280;64750;52.134;5.424;2024-01-15T10:42:04;100407.00;;;0.96;100.00
72086;BME280;64750;52.134;5.424;2024-01-15T10:44:32;100403.53;;;0.97;100.00
72086;BME280;64750;52.134;5.424;2024-01-15T10:47:00;100400.03;;;0.98;100.00
72086;BME280;64750;52.134;5.424;2024-01-15T10:49:27;100395.63;;;1.02;100.00
72086;BME280;64750;52.134;5.424;2024-01-15T10:52:00;100405.91;;;1.05;100.00
72086;BME280;64750;52.134;5.424;2024-01-15T10:54:27;100412.69;;;1.09;100.00
72086;BME280;64750;52.134;5.424;2024-01-15T10:56:56;100412.53;;;1.14;100.00
72086;BME280;64750;52.134;5.424;2024-01-15T10:59:22;100412.41;;;1.19;100.00
72086;BME280;64750;52.134;5.424;2024-01-15T11:01:50;100426.97;;;1.23;100.00
72086;BME280;64750;52.134;5.424;2024-01-15T11:04:21;100432.09;;;1.24;100.00
72086;BME280;64750;52.134;5.424;2024-01-15T11:06:51;100428.56;;;1.27;100.00
72086;BME280;64750;52.134;5.424;2024-01-15T11:09:18;100429.34;;;1.30;100.00
72086;BME280;64750;52.134;5.424;2024-01-15T11:11:46;100424.16;;;1.30;100.00
72086;BME280;64750;52.134;5.424;2024-01-15T11:14:35;100425.09;;;1.28;100.00
72086;BME280;64750;52.134;5.424;2024-01-15T11:17:02;100434.56;;;1.29;100.00
72086;BME280;64750;52.134;5.424;2024-01-15T11:19:36;100431.94;;;1.30;100.00
72086;BME280;64750;52.134;5.424;2024-01-15T11:22:34;100437.09;;;1.30;100.00
72086;BME280;64750;52.134;5.424;2024-01-15T11:25:12;100440.56;;;1.31;100.00
72086;BME280;64750;52.134;5.424;2024-01-15T11:27:43;100431.94;;;1.30;100.00
72086;BME280;64750;52.134;5.424;2024-01-15T11:30:11;100437.09;;;1.30;100.00
72086;BME280;64750;52.134;5.424;2024-01-15T11:32:39;100431.91;;;1.32;100.00
72086;BME280;64750;52.134;5.424;2024-01-15T11:35:10;100430.06;;;1.36;100.00
72086;BME280;64750;52.134;5.424;2024-01-15T11:37:56;100430.81;;;1.39;100.00
72086;BME280;64750;52.134;5.424;2024-01-15T11:42:59;100432.34;;;1.46;100.00
72086;BME280;64750;52.134;5.424;2024-01-15T11:45:26;100439.31;;;1.44;100.00
72086;BME280;64750;52.134;5.424;2024-01-15T11:48:09;100441.00;;;1.45;100.00
72086;BME280;64750;52.134;5.424;2024-01-15T11:50:48;100439.19;;;1.49;100.00
72086;BME280;64750;52.134;5.424;2024-01-15T11:53:33;100442.59;;;1.50;100.00
72086;BME280;64750;52.134;5.424;2024-01-15T11:56:03;100441.81;;;1.47;100.00
72086;BME280;64750;52.134;5.424;2024-01-15T11:58:32;100445.25;;;1.48;100.00
72086;BME280;64750;52.134;5.424;2024-01-15T12:01:00;100437.47;;;1.48;100.00
72086;BME280;64750;52.134;5.424;2024-01-15T12:03:27;100438.31;;;1.50;100.00
72086;BME280;64750;52.134;5.424;2024-01-15T12:05:53;100440.03;;;1.50;100.00
72086;BME280;64750;52.134;5.424;2024-01-15T12:08:23;100445.16;;;1.51;100.00
72086;BME280;64750;52.134;5.424;2024-01-15T12:10:50;100456.28;;;1.55;100.00
72086;BME280;64750;52.134;5.424;2024-01-15T12:13:17;100459.63;;;1.58;100.00
72086;BME280;64750;52.134;5.424;2024-01-15T12:15:45;100463.06;;;1.59;100.00
72086;BME280;64750;52.134;5.424;2024-01-15T12:18:14;100470.88;;;1.57;100.00
72086;BME280;64750;52.134;5.424;2024-01-15T12:20:43;100477.03;;;1.53;100.00
72086;BME280;64750;52.134;5.424;2024-01-15T12:23:10;100481.56;;;1.46;100.00
72086;BME280;64750;52.134;5.424;2024-01-15T12:25:37;100485.91;;;1.44;100.00
72086;BME280;64750;52.134;5.424;2024-01-15T12:28:04;100489.41;;;1.43;100.00
72086;BME280;64750;52.134;5.424;2024-01-15T12:30:33;100476.59;;;1.39;100.00
72086;BME280;64750;52.134;5.424;2024-01-15T12:33:04;100474.78;;;1.41;100.00
72086;BME280;64750;52.134;5.424;2024-01-15T12:35:31;100490.22;;;1.45;100.00
72086;BME280;64750;52.134;5.424;2024-01-15T12:38:02;100501.47;;;1.44;100.00
72086;BME280;64750;52.134;5.424;2024-01-15T12:40:31;100504.00;;;1.46;100.00
72086;BME280;64750;52.134;5.424;2024-01-15T12:42:58;100528.19;;;1.46;100.00
72086;BME280;64750;52.134;5.424;2024-01-15T12:45:25;100493.75;;;1.43;100.00
72086;BME280;64750;52.134;5.424;2024-01-15T12:47:52;100487.06;;;1.34;100.00
72086;BME280;64750;52.134;5.424;2024-01-15T12:50:19;100493.28;;;1.28;100.00
72086;BME280;64750;52.134;5.424;2024-01-15T12:52:47;100492.56;;;1.23;100.00
72086;BME280;64750;52.134;5.424;2024-01-15T12:55:14;100494.41;;;1.18;100.00
72086;BME280;64750;52.134;5.424;2024-01-15T12:57:42;100493.50;;;1.19;100.00